AirNav   Pilot Hours Calculator
 
 1128 users online  

43K Marion Municipal Airport
Marion, Kansas, USA

GOING TO MARION?


FAA INFORMATION EFFECTIVE 01 DECEMBER 2022

Location

FAA Identifier: 43K
Lat/Long: 38-20-15.4000N 096-59-17.7000W
38-20.256667N 096-59.295000W
38.3376111,-96.9882500
(estimated)
Elevation: 1390 ft. / 424 m (estimated)
Variation: 07E (1985)
From city: 2 miles SE of MARION, KS
Time zone: UTC -6 (UTC -5 during Daylight Saving Time)
Zip code: 66861

Airport Operations

Airport use: Open to the public
Activation date: 12/1945
Control tower: no
ARTCC: KANSAS CITY CENTER
FSS: WICHITA FLIGHT SERVICE STATION
NOTAMs facility: ICT (NOTAM-D service available)
Attendance: UNATNDD
PHONE AVBL 24 HRS.
Wind indicator: yes
Segmented circle: no
Beacon: white-green (lighted land airport)
Operates sunset to sunrise.

Airport Communications

CTAF: 122.9

Nearby radio navigation aids

VOR radial/distance  VOR name  Freq  Var
FRIr183/(38.4)FORT RILEY VOR109.4006E

 
NDB name  Hdg/Dist  Freq  Var  ID
HERINGTON195/22.940706EHRU .... .-. ..-

Airport Services

Fuel available: 100LL MOGAS
Parking: hangars and tiedowns
Airframe service: NONE
Powerplant service: NONE
Bottled oxygen: NONE
Bulk oxygen: NONE

Runway Information

Runway 17/35

Dimensions: 2573 x 40 ft. / 784 x 12 m
Surface: asphalt, in good condition
Runway edge lights: low intensity
Runway edge markings: RWY 35 ALIGNMENT NUMBERS FADED.
RUNWAY 17  RUNWAY 35
Latitude: 38-20.455545N38-20.031528N
Longitude: 096-59.227317W096-59.227317W
Elevation: 1382.0 ft.1378.0 ft.
Traffic pattern: leftleft
Runway heading: 173 magnetic, 180 true353 magnetic, 000 true
Markings: numbers only, in good conditionnumbers only, in good condition

Runway 3/21

Dimensions: 2745 x 95 ft. / 837 x 29 m
Surface: turf, in good condition
RY 03/21 IS SLIGHTLY ROUGH.
Runway edge markings: 03/21 THLDS & EDGES MKD WITH YELLOW PAINTED TIRES.
RUNWAY 3  RUNWAY 21
Traffic pattern: leftleft
Obstructions: 5 ft. fence, 1:1 slope to clear
THE PROXIMITY OF THE FENCE TO THE RWY ESTABLISHES THE CONTROLLING OBSTRUCTION. THE 35' TO 40' TREES DIRECTLY BEHIND WOULD BE MORE OF A CONCERN FOR APPROACHING AIRCRAFT.
30 ft. pline, 680 ft. from runway, 164 ft. left of centerline, 22:1 slope to clear

Runway 13/31

Dimensions: 2722 x 50 ft. / 830 x 15 m
Surface: turf, in good condition
Runway edge markings: 13/31 THLD & EDGES MKD WITH YELLOW PAINTED TIRES.
RUNWAY 13  RUNWAY 31
Traffic pattern: leftleft
Obstructions: 46 ft. tree, 22 ft. from runway, 32 ft. left of centerline, 1:1 slope to clearnone

Runway 18/36

Dimensions: 2310 x 67 ft. / 704 x 20 m
Surface: turf, in good condition
Runway edge markings: RY 18/36 THLD DELINEATED WITH YELLOW PAINTED TIRES.
RUNWAY 18  RUNWAY 36
Latitude: 38-20.459450N38-20.079648N
Longitude: 096-59.352258W096-59.385003W
Elevation: 1380.0 ft.1378.0 ft.
Traffic pattern: leftleft
Runway heading: 177 magnetic, 184 true357 magnetic, 004 true
Obstructions: 15 ft. road, 227 ft. from runway, 77 ft. right of centerline, 15:1 slope to clear24 ft. tree, 256 ft. from runway, 77 ft. right of centerline, 10:1 slope to clear

Airport Ownership and Management from official FAA records

Ownership: Publicly-owned
Owner: CITY OF MARION
208 EAST SANTA FE
MARION, KS 66861
Phone 620-382-3703
Manager: ROGER HOLTER
208 EAST SANTA FE
MARION, KS 66861
Phone 620-382-3703
MR.MAYFIELD IS CITY MGR. OF MARION KS.

Airport Operational Statistics

Aircraft based on the field: 17
Single engine airplanes: 16
Ultralights: 1
    
Aircraft operations: avg 25/day *
66% local general aviation
33% transient general aviation
<1% military
* for 12-month period ending 28 August 2019

Additional Remarks

A58-35 RWY 35 ROAD ABANDONED & IS GATED FM TRAFFIC. +4 FT FENCE; 70 FT FRM END OF RWY; BOTH SIDES OF RWY.
A58-17 +4' FENCE 5' FROM RWY END 30' L & R OF CNTRLEN; LOWERED AT RWY.
FOR CD CTC KANSAS CITY ARTCC AT 913-254-8508.

Instrument Procedures

There are no published instrument procedures at 43K.

Some nearby airports with instrument procedures:

KEWK - Newton City/County Airport (22 nm SW)
KHRU - Herington Regional Airport (23 nm N)
47K - Moundridge Municipal Airport (25 nm W)
KMPR - Mc Pherson Airport (33 nm W)
1K1 - Lloyd Stearman Field Airport (34 nm S)
 
Loc | Ops | Rwys | IFR | FBO | Links
Com | Nav | Svcs | Stats | Notes
Area around 43K (Marion Municipal Airport)
 
Road maps at: MapQuest Bing Google
 
Aerial photo
WARNING: Photo may not be current or correct
Aerial photo of 43K (Marion Municipal Airport)
Photo by Paul Hodson
Photo taken 21-Jan-2006
taken from a C182 from the northwest

Do you have a better or more recent aerial photo of Marion Municipal Airport that you would like to share? If so, please send us your photo.

 
Sectional chart

 
Airport distance calculator
Flying to Marion Municipal Airport? Find the distance to fly.

From to 43K

Sunrise and sunset
Times for 06-Dec-2022
 Local
(UTC-6)
 Zulu
(UTC)
Morning civil twilight07:0213:02
Sunrise07:3213:32
Sunset17:0623:06
Evening civil twilight17:3623:36

Current date and time
Zulu (UTC)  06-Dec-2022 14:22:55
Local (UTC-6)  06-Dec-2022 08:22:55
 
METAR
KEWK 
22nm SW 
061356Z AUTO 36011KT 10SM OVC008 M02/M04 A2994 RMK AO2 SLP146 T10221044 FZRANO
KMPR 
33nm W 
061355Z AUTO 36010KT 10SM BKN025 OVC031 M03/M07 A2996 RMK AO2 T10291066
K1K1 
34nm S 
061355Z AUTO 01004KT 10SM OVC008 00/M04 A2993 RMK AO2 T10051040
KEQA 
35nm S 
061355Z AUTO 01006KT 4SM BR OVC004 01/00 A2992 RMK AO2
KAAO 
37nm S 
061354Z AUTO 01010KT 10SM OVC008 00/M04 A2992 RMK AO2 SLP140 T00001039
KEMP 
37nm E 
061353Z AUTO 34007KT 4SM BR OVC007 00/M02 A2993 RMK AO2 SLP144 T00001022
KBEC 
40nm S 
061355Z AUTO 01010G15KT 10SM OVC010 00/M03 A2992 RMK AO2 T00001034
K3AU 
40nm S 
061355Z AUTO 01010KT 7SM OVC009 00/M02 A2993 RMK AO2
KSLN 
41nm NW 
061353Z 32006KT 10SM CLR M04/M07 A2998 RMK AO2 SLP165 T10441072
KFRI 
43nm N 
061355Z AUTO 35004KT 10SM OVC033 M02/M06 A2998 RMK AO2 SLP160 T10181064 FZRANO $
TAF
KSLN 
41nm NW 
061124Z 0612/0712 35007KT P6SM BKN100 FM062200 36007KT P6SM BKN030
KFRI 
43nm N 
061200Z 0612/0718 03006KT 9999 SCT120 QNH2994INS BECMG 0613/0614 03006KT 9999 FEW200 QNH2999INS BECMG 0623/0624 18006KT 9999 SKC QNH3002INS TX08/0621Z TNM03/0612Z
KHUT 
44nm W 
061124Z 0612/0712 36009KT P6SM OVC120 FM061800 35008KT P6SM BKN015 FM062300 36007KT P6SM BKN025 FM070300 36007KT P6SM BKN015
KIAB 
45nm S 
061130Z 0611/0716 04009KT 9999 OVC007 QNH2981INS TEMPO 0611/0613 8000 BR OVC003 BECMG 0612/0613 36010G15KT 9999 FEW005 BKN009 OVC015 QNH2988INS BECMG 0614/0615 35009KT 9999 VCSH SCT005 BKN009 OVC025 QNH2994INS TEMPO 0615/0618 6000 -DZ BR SCT003 BKN005 OVC009 BECMG 0617/0618 35006KT 9999 NSW SCT005 BKN015 OVC020 QNH2996INS BECMG 0620/0621 VRB06KT 9999 SCT200 BKN250 QNH3011INS BECMG 0711/0712 09006KT 9999 FEW010 SCT050 QNH3020INS TX06/0621Z TN01/0612Z
KICT 
46nm SW 
061124Z 0612/0712 01007KT P6SM OVC010 FM062100 36007KT P6SM BKN020 FM070200 01004KT P6SM BKN015 FM070900 05004KT P6SM OVC050
KMHK 
50nm N 
061120Z 0612/0712 03006KT P6SM SCT070 BKN200
NOTAMs
Click for the latest NOTAMs
NOTAMs are issued by the DoD/FAA and will open in a separate window not controlled by AirNav.

 

 
 

Would you like to see your business listed on this page?

 If your business provides an interesting product or service to pilots, flight crews, aircraft, or users of the Marion Municipal Airport, you should consider listing it here.  To start the listing process, click on the button below
 
Add a business
 

Other Pages about Marion Municipal Airport

Update a link
 
Copyright © AirNav, LLC. All rights reserved. Privacy Policy  Contact